createdAt,value
2022-08-31T00:00:12.875Z,9.80
2022-08-31T00:02:58.242Z,9.70
2022-08-31T00:05:25.178Z,9.70
2022-08-31T00:07:52.707Z,9.68
2022-08-31T00:10:31.665Z,10.00
2022-08-31T00:13:01.036Z,9.80
2022-08-31T00:15:30.232Z,9.87
2022-08-31T00:17:59.019Z,9.40
2022-08-31T00:20:33.363Z,9.60
2022-08-31T00:23:11.079Z,10.45
2022-08-31T00:25:40.707Z,9.80
2022-08-31T00:28:08.848Z,9.30
2022-08-31T00:30:36.581Z,9.10
2022-08-31T00:33:04.419Z,9.93
2022-08-31T00:35:36.144Z,9.05
2022-08-31T00:38:04.760Z,9.45
2022-08-31T00:40:32.262Z,9.20
2022-08-31T00:43:00.670Z,9.52
2022-08-31T00:45:27.744Z,9.15
2022-08-31T00:47:54.947Z,9.63
2022-08-31T00:50:24.297Z,10.32
2022-08-31T00:52:58.155Z,9.27
2022-08-31T00:55:31.292Z,10.20
2022-08-31T00:58:01.929Z,9.80
2022-08-31T01:00:29.888Z,9.40
2022-08-31T01:02:59.532Z,9.40
2022-08-31T01:05:26.385Z,9.45
2022-08-31T01:07:53.905Z,9.70
2022-08-31T01:10:23.890Z,9.65
2022-08-31T01:12:53.656Z,9.52
2022-08-31T01:15:22.782Z,9.25
2022-08-31T01:17:52.670Z,9.48
2022-08-31T01:20:48.867Z,9.67
2022-08-31T01:23:24.966Z,9.48
2022-08-31T01:25:53.812Z,9.50
2022-08-31T01:28:20.720Z,9.35
2022-08-31T01:31:20.254Z,9.38
2022-08-31T01:33:47.179Z,8.93
2022-08-31T01:36:16.218Z,9.60
2022-08-31T01:38:43.912Z,9.85
2022-08-31T01:41:11.125Z,9.40
2022-08-31T01:43:40.783Z,9.60
2022-08-31T01:46:09.998Z,9.00
2022-08-31T01:48:41.301Z,9.68
2022-08-31T01:51:10.804Z,9.00
2022-08-31T01:53:40.458Z,9.23
2022-08-31T01:56:14.714Z,9.65
2022-08-31T01:58:41.687Z,9.43
2022-08-31T02:01:33.184Z,9.07
2022-08-31T02:03:58.794Z,9.50
2022-08-31T02:06:26.145Z,9.10
2022-08-31T02:08:53.109Z,9.32
2022-08-31T02:11:20.119Z,8.70
2022-08-31T02:13:46.912Z,8.68
2022-08-31T02:16:13.810Z,9.38
2022-08-31T02:18:40.694Z,9.70
2022-08-31T02:21:07.436Z,9.00
2022-08-31T02:23:34.353Z,9.50
2022-08-31T02:26:01.637Z,9.38
2022-08-31T02:28:28.428Z,9.20
2022-08-31T02:30:55.307Z,9.13
2022-08-31T02:33:22.649Z,9.30
2022-08-31T02:35:50.315Z,9.18
2022-08-31T02:38:22.881Z,9.35
2022-08-31T02:40:51.403Z,9.15
2022-08-31T02:43:24.704Z,9.60
2022-08-31T02:45:53.551Z,8.90
2022-08-31T02:48:21.869Z,8.88
2022-08-31T02:50:52.390Z,9.00
2022-08-31T02:53:21.697Z,9.27
2022-08-31T02:55:49.494Z,8.95
2022-08-31T02:58:20.653Z,9.15
2022-08-31T03:00:50.425Z,9.75
2022-08-31T03:03:18.174Z,9.60
2022-08-31T03:05:45.366Z,9.35
2022-08-31T03:08:12.124Z,9.55
2022-08-31T03:10:39.069Z,9.25
2022-08-31T03:13:06.053Z,9.60
2022-08-31T03:15:33.304Z,9.60
2022-08-31T03:18:00.277Z,9.10
2022-08-31T03:20:30.169Z,10.70
2022-08-31T03:23:00.461Z,9.02
2022-08-31T03:25:27.314Z,9.77
2022-08-31T03:27:54.286Z,9.38
2022-08-31T03:30:22.632Z,8.98
2022-08-31T03:32:51.040Z,9.13
2022-08-31T03:35:19.751Z,8.70
2022-08-31T03:37:46.603Z,8.93
2022-08-31T03:40:13.645Z,9.45
2022-08-31T03:42:41.171Z,9.20
2022-08-31T03:45:08.559Z,8.93
2022-08-31T03:47:36.125Z,9.20
2022-08-31T03:50:11.715Z,8.60
2022-08-31T03:52:39.356Z,8.88
2022-08-31T03:55:08.208Z,8.60
2022-08-31T03:57:35.055Z,8.88
2022-08-31T04:00:03.529Z,8.35
2022-08-31T04:02:35.441Z,8.50
2022-08-31T04:05:05.124Z,8.80
2022-08-31T04:07:38.336Z,8.60
2022-08-31T04:10:11.062Z,8.50
2022-08-31T04:12:38.080Z,8.82
2022-08-31T04:15:05.782Z,8.40
2022-08-31T04:17:33.233Z,8.30
2022-08-31T04:20:00.400Z,8.10
2022-08-31T04:22:27.242Z,8.18
2022-08-31T04:24:54.377Z,8.02
2022-08-31T04:27:21.245Z,8.52
2022-08-31T04:29:48.006Z,8.60
2022-08-31T04:32:14.837Z,8.50
2022-08-31T04:34:41.645Z,8.07
2022-08-31T04:37:10.447Z,7.93
2022-08-31T04:39:50.331Z,9.15
2022-08-31T04:44:45.130Z,8.80
2022-08-31T04:47:11.958Z,8.52
2022-08-31T04:49:39.086Z,8.63
2022-08-31T04:52:06.673Z,8.18
2022-08-31T04:54:33.649Z,8.63
2022-08-31T04:57:00.455Z,8.23
2022-08-31T04:59:27.598Z,8.52
2022-08-31T05:01:55.346Z,8.30
2022-08-31T05:04:26.011Z,8.00
2022-08-31T05:06:52.892Z,8.15
2022-08-31T05:09:22.674Z,8.85
2022-08-31T05:11:51.748Z,8.67
2022-08-31T05:14:18.782Z,9.52
2022-08-31T05:16:46.449Z,9.77
2022-08-31T05:19:13.662Z,9.63
2022-08-31T05:21:42.162Z,9.00
2022-08-31T05:24:21.646Z,8.52
2022-08-31T05:26:52.829Z,9.15
2022-08-31T05:29:22.136Z,8.77
2022-08-31T05:31:52.506Z,8.55
2022-08-31T05:34:21.266Z,9.07
2022-08-31T05:36:52.639Z,9.00
2022-08-31T05:39:19.980Z,8.75
2022-08-31T05:41:47.833Z,9.15
2022-08-31T05:44:15.722Z,8.60
2022-08-31T05:46:42.698Z,9.10
2022-08-31T05:49:11.014Z,9.07
2022-08-31T05:51:39.260Z,8.60
2022-08-31T05:54:07.592Z,9.00
2022-08-31T05:56:35.635Z,8.52
2022-08-31T05:59:02.849Z,8.82
2022-08-31T06:01:33.222Z,8.45
2022-08-31T06:04:00.818Z,8.38
2022-08-31T06:06:28.081Z,8.85
2022-08-31T06:08:55.817Z,8.75
2022-08-31T06:11:26.650Z,8.27
2022-08-31T06:16:22.853Z,8.07
2022-08-31T06:18:51.118Z,8.10
2022-08-31T06:21:24.296Z,9.05
2022-08-31T06:23:53.381Z,8.30
2022-08-31T06:26:22.191Z,8.55
2022-08-31T06:28:51.918Z,9.88
2022-08-31T06:31:24.485Z,8.27
2022-08-31T06:33:52.239Z,9.43
2022-08-31T06:36:21.935Z,8.85
2022-08-31T06:38:49.027Z,9.50
2022-08-31T06:41:19.558Z,8.93
2022-08-31T06:43:46.848Z,9.07
2022-08-31T06:46:14.972Z,8.35
2022-08-31T06:48:42.427Z,8.90
2022-08-31T06:51:10.221Z,8.60
2022-08-31T06:53:42.806Z,9.18
2022-08-31T06:56:21.932Z,8.40
2022-08-31T06:58:53.690Z,9.40
2022-08-31T07:01:35.598Z,8.82
2022-08-31T07:04:10.935Z,9.02
2022-08-31T07:06:44.152Z,8.90
2022-08-31T07:09:17.742Z,9.85
2022-08-31T07:11:50.224Z,9.45
2022-08-31T07:14:22.064Z,8.70
2022-08-31T07:16:52.195Z,9.27
2022-08-31T07:19:20.324Z,9.85
2022-08-31T07:21:51.126Z,9.75
2022-08-31T07:24:24.111Z,9.80
2022-08-31T07:26:54.462Z,10.50
2022-08-31T07:29:23.228Z,9.88
2022-08-31T07:31:50.916Z,9.32
2022-08-31T07:34:19.313Z,9.93
2022-08-31T07:37:05.732Z,8.10
2022-08-31T07:39:52.250Z,9.70
2022-08-31T07:42:25.384Z,8.90
2022-08-31T07:44:54.163Z,9.07
2022-08-31T07:47:22.772Z,9.02
2022-08-31T07:49:52.583Z,8.77
2022-08-31T07:52:22.028Z,9.02
2022-08-31T07:54:50.310Z,9.10
2022-08-31T07:57:18.930Z,9.23
2022-08-31T07:59:49.622Z,9.15
2022-08-31T08:04:45.020Z,8.95
2022-08-31T08:07:12.963Z,8.10
2022-08-31T08:09:39.804Z,9.00
2022-08-31T08:12:07.537Z,8.85
2022-08-31T08:14:36.568Z,8.48
2022-08-31T08:17:05.992Z,9.23
2022-08-31T08:19:35.655Z,8.77
2022-08-31T08:22:03.651Z,8.93
2022-08-31T08:24:31.674Z,9.70
2022-08-31T08:26:59.552Z,9.15
2022-08-31T08:29:29.898Z,8.38
2022-08-31T08:32:00.678Z,8.77
2022-08-31T08:34:31.568Z,9.05
2022-08-31T08:37:00.222Z,8.75
2022-08-31T08:39:27.853Z,9.60
2022-08-31T08:41:57.386Z,8.45
2022-08-31T08:44:28.146Z,8.75
2022-08-31T08:49:41.258Z,9.82
2022-08-31T08:52:18.363Z,9.05
2022-08-31T08:54:48.164Z,9.13
2022-08-31T08:57:19.192Z,9.73
2022-08-31T08:59:48.318Z,9.32
2022-08-31T09:02:23.461Z,9.95
2022-08-31T09:05:03.226Z,9.50
2022-08-31T09:07:58.311Z,9.63
2022-08-31T09:10:45.644Z,9.15
2022-08-31T09:13:18.016Z,9.75
2022-08-31T09:15:51.054Z,9.15
2022-08-31T09:18:21.001Z,9.23
2022-08-31T09:21:05.273Z,8.80
2022-08-31T09:23:41.341Z,8.60
2022-08-31T09:26:11.129Z,8.95
2022-08-31T09:28:48.429Z,8.80
2022-08-31T09:31:38.869Z,9.02
2022-08-31T09:34:31.308Z,9.32
2022-08-31T09:37:23.779Z,8.43
2022-08-31T09:39:52.890Z,9.38
2022-08-31T09:42:31.217Z,8.57
2022-08-31T09:45:02.593Z,9.32
2022-08-31T09:47:48.273Z,9.13
2022-08-31T09:50:45.576Z,8.32
2022-08-31T09:53:34.652Z,8.82
2022-08-31T09:56:16.819Z,9.80
2022-08-31T09:58:54.013Z,9.38
2022-08-31T10:01:31.380Z,9.82
2022-08-31T10:04:19.087Z,9.07
2022-08-31T10:07:12.017Z,9.85
2022-08-31T10:09:57.887Z,9.25
2022-08-31T10:12:43.974Z,10.18
2022-08-31T10:15:20.345Z,9.73
2022-08-31T10:18:03.198Z,9.13
2022-08-31T10:20:39.693Z,9.57
2022-08-31T10:23:36.098Z,8.35
2022-08-31T10:26:36.860Z,8.40
2022-08-31T10:31:48.412Z,8.20
2022-08-31T10:34:54.388Z,8.85
2022-08-31T10:37:34.047Z,9.90
2022-08-31T10:40:32.420Z,9.05
2022-08-31T10:43:26.814Z,8.80
2022-08-31T10:45:59.849Z,9.15
2022-08-31T10:48:34.410Z,8.52
2022-08-31T10:51:23.473Z,8.95
2022-08-31T10:54:03.937Z,8.05
2022-08-31T10:57:21.370Z,7.97
2022-08-31T10:59:58.582Z,8.45
2022-08-31T11:03:25.138Z,8.50
2022-08-31T11:06:10.965Z,7.63
2022-08-31T11:09:04.096Z,8.15
2022-08-31T11:12:09.956Z,8.50
2022-08-31T11:14:47.467Z,8.20
2022-08-31T11:17:53.949Z,7.70
2022-08-31T11:20:34.140Z,8.18
2022-08-31T11:26:02.282Z,8.82
2022-08-31T11:28:46.374Z,7.90
2022-08-31T11:31:27.806Z,7.95
2022-08-31T11:34:15.679Z,8.18
2022-08-31T11:36:54.812Z,8.35
2022-08-31T11:39:48.103Z,8.50
2022-08-31T11:42:28.141Z,8.50
2022-08-31T11:45:14.863Z,8.63
2022-08-31T11:47:43.257Z,8.70
2022-08-31T11:50:23.724Z,9.50
2022-08-31T11:52:56.763Z,8.75
2022-08-31T11:55:49.123Z,7.78
2022-08-31T11:58:45.865Z,7.88
2022-08-31T12:01:13.807Z,7.80
2022-08-31T12:04:04.761Z,7.53
2022-08-31T12:06:38.470Z,7.80
2022-08-31T12:09:43.729Z,8.07
2022-08-31T12:12:37.530Z,8.30
2022-08-31T12:15:34.987Z,8.93
2022-08-31T12:18:38.853Z,7.70
2022-08-31T12:21:50.103Z,7.85
2022-08-31T12:24:50.250Z,8.05
2022-08-31T12:27:21.372Z,8.23
2022-08-31T12:29:54.994Z,8.73
2022-08-31T12:32:46.784Z,8.07
2022-08-31T12:35:27.837Z,8.15
2022-08-31T12:38:21.683Z,7.50
2022-08-31T12:41:14.838Z,7.85
2022-08-31T12:43:54.235Z,8.43
2022-08-31T12:47:07.645Z,7.88
2022-08-31T12:49:41.701Z,8.27
2022-08-31T12:55:38.952Z,7.40
2022-08-31T12:58:19.895Z,6.93
2022-08-31T13:00:50.849Z,9.13
2022-08-31T13:03:32.922Z,7.70
2022-08-31T13:06:09.810Z,7.78
2022-08-31T13:08:53.908Z,7.13
2022-08-31T13:11:52.527Z,7.15
2022-08-31T13:14:28.116Z,7.03
2022-08-31T13:17:21.642Z,7.72
2022-08-31T13:20:02.831Z,7.75
2022-08-31T13:22:45.391Z,6.70
2022-08-31T13:25:38.113Z,7.70
2022-08-31T13:28:26.713Z,7.72
2022-08-31T13:31:04.923Z,7.40
2022-08-31T13:33:38.752Z,7.25
2022-08-31T13:36:36.747Z,6.50
2022-08-31T13:39:25.623Z,6.55
2022-08-31T13:42:14.397Z,6.43
2022-08-31T13:44:44.475Z,11.23
2022-08-31T13:47:47.601Z,7.07
2022-08-31T13:50:37.724Z,7.13
2022-08-31T13:53:26.373Z,6.32
2022-08-31T13:55:58.676Z,6.80
2022-08-31T13:58:37.120Z,8.98
2022-08-31T14:01:25.438Z,7.75
2022-08-31T14:04:01.559Z,7.07
2022-08-31T14:06:46.743Z,7.07
2022-08-31T14:09:21.656Z,6.65
2022-08-31T14:11:54.300Z,6.60
2022-08-31T14:14:33.275Z,6.60
2022-08-31T14:17:04.329Z,6.40
2022-08-31T14:19:35.403Z,6.25
2022-08-31T14:22:36.747Z,6.20
2022-08-31T14:25:07.144Z,6.53
2022-08-31T14:27:44.131Z,6.10
2022-08-31T14:30:13.372Z,6.90
2022-08-31T14:32:46.871Z,6.15
2022-08-31T14:35:25.587Z,6.50
2022-08-31T14:38:01.192Z,6.50
2022-08-31T14:40:29.431Z,6.25
2022-08-31T14:42:56.639Z,7.70
2022-08-31T14:45:24.642Z,6.68
2022-08-31T14:48:01.027Z,6.68
2022-08-31T14:50:29.302Z,6.30
2022-08-31T14:53:00.245Z,6.50
2022-08-31T14:55:31.515Z,6.22
2022-08-31T14:58:06.301Z,6.40
2022-08-31T15:00:51.105Z,6.60
2022-08-31T15:03:34.644Z,6.72
2022-08-31T15:06:13.629Z,5.93
2022-08-31T15:08:44.300Z,6.50
2022-08-31T15:11:18.665Z,6.00
2022-08-31T15:13:46.576Z,6.00
2022-08-31T15:16:19.440Z,6.45
2022-08-31T15:18:48.700Z,6.47
2022-08-31T15:21:17.186Z,6.78
2022-08-31T15:23:50.225Z,6.07
2022-08-31T15:26:24.547Z,6.22
2022-08-31T15:29:01.451Z,5.97
2022-08-31T15:31:29.124Z,5.95
2022-08-31T15:34:00.419Z,5.78
2022-08-31T15:36:29.454Z,5.70
2022-08-31T15:39:01.307Z,6.05
2022-08-31T15:41:30.333Z,5.70
2022-08-31T15:44:00.065Z,5.90
2022-08-31T15:46:46.027Z,6.70
2022-08-31T15:49:18.684Z,7.50
2022-08-31T15:51:58.482Z,6.82
2022-08-31T15:54:27.958Z,7.13
2022-08-31T15:56:58.464Z,6.82
2022-08-31T15:59:31.157Z,6.25
2022-08-31T16:02:00.924Z,6.10
2022-08-31T16:04:30.027Z,6.03
2022-08-31T16:07:00.574Z,5.80
2022-08-31T16:09:33.888Z,6.00
2022-08-31T16:12:03.829Z,5.68
2022-08-31T16:14:32.681Z,6.40
2022-08-31T16:17:00.612Z,6.25
2022-08-31T16:19:35.556Z,5.60
2022-08-31T16:22:14.081Z,5.75
2022-08-31T16:24:45.339Z,6.38
2022-08-31T16:27:20.874Z,6.20
2022-08-31T16:29:50.981Z,6.10
2022-08-31T16:32:19.514Z,6.45
2022-08-31T16:34:46.797Z,5.72
2022-08-31T16:37:15.923Z,6.57
2022-08-31T16:39:48.809Z,6.25
2022-08-31T16:42:16.956Z,6.03
2022-08-31T16:44:48.023Z,6.50
2022-08-31T16:47:18.873Z,6.00
2022-08-31T16:49:49.243Z,6.57
2022-08-31T16:52:21.810Z,6.43
2022-08-31T16:54:54.037Z,6.50
2022-08-31T16:57:30.499Z,6.15
2022-08-31T16:59:59.607Z,6.00
2022-08-31T17:02:31.838Z,6.75
2022-08-31T17:05:04.562Z,6.97
2022-08-31T17:07:40.416Z,10.15
2022-08-31T17:10:16.210Z,12.45
2022-08-31T17:12:48.121Z,9.13
2022-08-31T17:15:24.148Z,8.98
2022-08-31T17:17:53.192Z,9.02
2022-08-31T17:20:20.429Z,7.00
2022-08-31T17:22:52.210Z,7.05
2022-08-31T17:25:26.379Z,6.13
2022-08-31T17:28:00.418Z,6.57
2022-08-31T17:30:30.537Z,6.78
2022-08-31T17:33:06.073Z,6.68
2022-08-31T17:35:38.468Z,6.60
2022-08-31T17:38:05.803Z,7.10
2022-08-31T17:40:34.551Z,7.30
2022-08-31T17:43:02.688Z,6.93
2022-08-31T17:45:36.929Z,7.32
2022-08-31T17:48:05.385Z,7.10
2022-08-31T17:50:33.942Z,7.50
2022-08-31T17:53:00.954Z,7.10
2022-08-31T17:55:29.974Z,7.85
2022-08-31T17:57:57.568Z,6.70
2022-08-31T18:00:26.386Z,7.18
2022-08-31T18:03:08.130Z,7.13
2022-08-31T18:05:37.340Z,7.03
2022-08-31T18:10:54.695Z,7.55
2022-08-31T18:13:24.318Z,7.00
2022-08-31T18:15:54.795Z,9.48
2022-08-31T18:18:26.106Z,7.72
2022-08-31T18:20:57.220Z,7.82
2022-08-31T18:23:24.367Z,8.10
2022-08-31T18:25:51.478Z,7.43
2022-08-31T18:28:19.302Z,7.93
2022-08-31T18:30:49.588Z,7.68
2022-08-31T18:33:19.454Z,7.05
2022-08-31T18:35:50.720Z,7.15
2022-08-31T18:38:23.334Z,6.85
2022-08-31T18:41:11.665Z,7.65
2022-08-31T18:44:03.792Z,7.70
2022-08-31T18:46:32.355Z,7.20
2022-08-31T18:49:12.154Z,7.10
2022-08-31T18:51:50.021Z,7.28
2022-08-31T18:54:25.867Z,7.80
2022-08-31T18:56:52.803Z,7.72
2022-08-31T18:59:21.986Z,10.25
2022-08-31T19:01:49.532Z,8.50
2022-08-31T19:04:22.380Z,8.15
2022-08-31T19:06:49.749Z,7.90
2022-08-31T19:12:04.529Z,7.60
2022-08-31T19:14:37.746Z,7.60
2022-08-31T19:17:05.591Z,6.95
2022-08-31T19:19:34.645Z,7.40
2022-08-31T19:22:02.801Z,7.20
2022-08-31T19:24:33.135Z,7.75
2022-08-31T19:27:00.574Z,6.95
2022-08-31T19:29:31.885Z,7.10
2022-08-31T19:32:03.538Z,8.70
2022-08-31T19:34:43.466Z,7.88
2022-08-31T19:37:12.951Z,8.43
2022-08-31T19:39:45.848Z,6.82
2022-08-31T19:42:15.964Z,7.25
2022-08-31T19:45:22.649Z,7.82
2022-08-31T19:47:41.420Z,7.22
2022-08-31T19:50:14.071Z,7.50
2022-08-31T19:52:45.787Z,7.75
2022-08-31T19:55:14.088Z,7.60
2022-08-31T19:57:44.045Z,7.60
2022-08-31T20:00:15.272Z,7.25
2022-08-31T20:02:46.093Z,7.45
2022-08-31T20:05:43.950Z,7.80
2022-08-31T20:08:13.523Z,7.95
2022-08-31T20:10:42.786Z,8.00
2022-08-31T20:13:13.783Z,7.88
2022-08-31T20:15:44.103Z,7.83
2022-08-31T20:18:14.159Z,7.80
2022-08-31T20:20:49.082Z,7.57
2022-08-31T20:23:22.495Z,7.75
2022-08-31T20:25:51.827Z,8.07
2022-08-31T20:28:27.678Z,8.70
2022-08-31T20:30:59.295Z,7.75
2022-08-31T20:33:27.764Z,7.93
2022-08-31T20:35:55.505Z,7.38
2022-08-31T20:38:29.819Z,7.20
2022-08-31T20:40:57.748Z,7.63
2022-08-31T20:43:27.155Z,8.40
2022-08-31T20:46:00.880Z,7.78
2022-08-31T20:48:49.735Z,7.40
2022-08-31T20:51:19.664Z,8.02
2022-08-31T20:53:49.464Z,8.18
2022-08-31T20:56:18.631Z,7.95
2022-08-31T20:58:49.016Z,8.00
2022-08-31T21:01:17.371Z,7.28
2022-08-31T21:03:45.007Z,7.72
2022-08-31T21:06:15.834Z,7.82
2022-08-31T21:08:44.814Z,8.50
2022-08-31T21:11:18.422Z,7.65
2022-08-31T21:13:46.968Z,8.18
2022-08-31T21:16:15.875Z,8.15
2022-08-31T21:18:47.129Z,9.07
2022-08-31T21:21:19.911Z,8.80
2022-08-31T21:23:52.206Z,8.30
2022-08-31T21:26:26.001Z,8.52
2022-08-31T21:28:58.105Z,8.30
2022-08-31T21:31:30.718Z,8.00
2022-08-31T21:34:07.708Z,8.40
2022-08-31T21:36:39.693Z,7.82
2022-08-31T21:39:09.823Z,8.25
2022-08-31T21:44:10.478Z,8.30
2022-08-31T21:46:51.182Z,8.57
2022-08-31T21:49:29.618Z,8.73
2022-08-31T21:52:00.017Z,8.70
2022-08-31T21:54:28.677Z,9.00
2022-08-31T21:56:59.515Z,8.90
2022-08-31T21:59:32.104Z,8.82
2022-08-31T22:02:01.314Z,8.80
2022-08-31T22:04:32.411Z,8.65
2022-08-31T22:09:29.472Z,9.20
2022-08-31T22:12:00.964Z,9.30
2022-08-31T22:14:32.765Z,8.60
2022-08-31T22:17:05.831Z,9.30
2022-08-31T22:19:39.176Z,10.35
2022-08-31T22:22:13.636Z,8.70
2022-08-31T22:24:47.435Z,9.05
2022-08-31T22:27:14.758Z,8.80
2022-08-31T22:29:43.707Z,9.00
2022-08-31T22:32:16.168Z,9.20
2022-08-31T22:34:46.352Z,9.48
2022-08-31T22:37:15.713Z,9.50
2022-08-31T22:39:43.168Z,9.70
2022-08-31T22:42:15.537Z,9.82
2022-08-31T22:44:43.970Z,9.25
2022-08-31T22:47:11.891Z,9.20
2022-08-31T22:49:39.091Z,9.57
2022-08-31T22:52:17.219Z,9.10
2022-08-31T22:54:49.073Z,9.40
2022-08-31T22:57:20.809Z,9.85
2022-08-31T22:59:48.565Z,9.45
2022-08-31T23:02:17.986Z,9.13
2022-08-31T23:04:48.238Z,9.48
2022-08-31T23:07:17.365Z,9.38
2022-08-31T23:09:45.525Z,10.15
2022-08-31T23:12:13.961Z,9.38
2022-08-31T23:14:43.079Z,9.50
2022-08-31T23:17:11.736Z,9.57
2022-08-31T23:19:44.243Z,9.75
2022-08-31T23:22:15.533Z,9.75
2022-08-31T23:24:49.614Z,9.38
2022-08-31T23:27:19.596Z,9.60
2022-08-31T23:29:52.186Z,9.30
2022-08-31T23:32:33.719Z,9.35
2022-08-31T23:35:03.390Z,9.90
2022-08-31T23:37:33.673Z,9.40
2022-08-31T23:40:00.839Z,9.70
2022-08-31T23:42:32.479Z,9.23
2022-08-31T23:45:04.318Z,8.98
2022-08-31T23:47:33.334Z,10.00
2022-08-31T23:50:05.200Z,9.65
2022-08-31T23:52:41.842Z,9.25
2022-08-31T23:55:11.854Z,9.68
2022-08-31T23:57:40.664Z,9.43
